sensor_id;sensor_type;location;lat;lon;timestamp;pressure;altitude;pressure_sealevel;temperature;humidity
77011;BME280;65945;53.148;17.956;2023-04-03T00:00:39;102262.23;;;-0.53;71.18
77011;BME280;65945;53.148;17.956;2023-04-03T00:03:16;102263.45;;;-0.53;71.02
77011;BME280;65945;53.148;17.956;2023-04-03T00:05:42;102262.05;;;-0.55;71.33
77011;BME280;65945;53.148;17.956;2023-04-03T00:08:09;102262.11;;;-0.57;71.35
77011;BME280;65945;53.148;17.956;2023-04-03T00:10:36;102262.39;;;-0.59;71.01
77011;BME280;65945;53.148;17.956;2023-04-03T00:13:04;102261.10;;;-0.60;71.12
77011;BME280;65945;53.148;17.956;2023-04-03T00:15:31;102261.79;;;-0.60;71.53
77011;BME280;65945;53.148;17.956;2023-04-03T00:17:58;102260.73;;;-0.60;71.78
77011;BME280;65945;53.148;17.956;2023-04-03T00:20:24;102258.77;;;-0.61;71.49
77011;BME280;65945;53.148;17.956;2023-04-03T00:22:51;102261.27;;;-0.62;71.18
77011;BME280;65945;53.148;17.956;2023-04-03T00:25:17;102255.52;;;-0.64;71.63
77011;BME280;65945;53.148;17.956;2023-04-03T00:27:44;102258.41;;;-0.64;71.58
77011;BME280;65945;53.148;17.956;2023-04-03T00:30:14;102254.09;;;-0.65;71.18
77011;BME280;65945;53.148;17.956;2023-04-03T00:32:41;102258.45;;;-0.65;71.67
77011;BME280;65945;53.148;17.956;2023-04-03T00:35:08;102254.89;;;-0.68;71.76
77011;BME280;65945;53.148;17.956;2023-04-03T00:37:35;102258.38;;;-0.70;72.15
77011;BME280;65945;53.148;17.956;2023-04-03T00:40:03;102258.61;;;-0.71;71.96
77011;BME280;65945;53.148;17.956;2023-04-03T00:42:30;102254.27;;;-0.73;71.84
77011;BME280;65945;53.148;17.956;2023-04-03T00:45:26;102253.91;;;-0.75;72.11
77011;BME280;65945;53.148;17.956;2023-04-03T00:47:53;102253.92;;;-0.77;71.77
77011;BME280;65945;53.148;17.956;2023-04-03T00:50:19;102258.60;;;-0.80;72.00
77011;BME280;65945;53.148;17.956;2023-04-03T00:52:47;102259.81;;;-0.82;72.09
77011;BME280;65945;53.148;17.956;2023-04-03T00:55:16;102260.36;;;-0.83;72.37
77011;BME280;65945;53.148;17.956;2023-04-03T00:57:42;102259.65;;;-0.86;72.14
77011;BME280;65945;53.148;17.956;2023-04-03T01:00:13;102261.02;;;-0.88;72.27
77011;BME280;65945;53.148;17.956;2023-04-03T01:02:41;102257.48;;;-0.89;72.56
77011;BME280;65945;53.148;17.956;2023-04-03T01:05:09;102257.28;;;-0.92;72.20
77011;BME280;65945;53.148;17.956;2023-04-03T01:07:37;102254.45;;;-0.94;72.62
77011;BME280;65945;53.148;17.956;2023-04-03T01:10:08;102257.80;;;-0.95;72.63
77011;BME280;65945;53.148;17.956;2023-04-03T01:12:37;102257.23;;;-0.97;72.84
77011;BME280;65945;53.148;17.956;2023-04-03T01:15:11;102259.09;;;-0.99;72.71
77011;BME280;65945;53.148;17.956;2023-04-03T01:17:57;102259.27;;;-1.00;72.76
77011;BME280;65945;53.148;17.956;2023-04-03T01:20:42;102260.52;;;-1.01;73.02
77011;BME280;65945;53.148;17.956;2023-04-03T01:23:25;102262.58;;;-1.03;73.15
77011;BME280;65945;53.148;17.956;2023-04-03T01:25:55;102261.09;;;-1.04;73.26
77011;BME280;65945;53.148;17.956;2023-04-03T01:28:33;102266.16;;;-1.05;73.25
77011;BME280;65945;53.148;17.956;2023-04-03T01:33:46;102268.20;;;-1.06;73.39
77011;BME280;65945;53.148;17.956;2023-04-03T01:36:18;102268.46;;;-1.05;73.40
77011;BME280;65945;53.148;17.956;2023-04-03T01:38:45;102272.09;;;-1.06;73.49
77011;BME280;65945;53.148;17.956;2023-04-03T01:41:13;102272.48;;;-1.06;73.42
77011;BME280;65945;53.148;17.956;2023-04-03T01:43:40;102272.07;;;-1.07;73.18
77011;BME280;65945;53.148;17.956;2023-04-03T01:46:06;102274.85;;;-1.07;73.31
77011;BME280;65945;53.148;17.956;2023-04-03T01:48:34;102271.98;;;-1.08;73.33
77011;BME280;65945;53.148;17.956;2023-04-03T01:51:01;102273.49;;;-1.09;73.11
77011;BME280;65945;53.148;17.956;2023-04-03T01:53:27;102274.42;;;-1.10;73.87
77011;BME280;65945;53.148;17.956;2023-04-03T01:55:54;102276.05;;;-1.10;73.63
77011;BME280;65945;53.148;17.956;2023-04-03T01:58:21;102279.50;;;-1.11;73.48
77011;BME280;65945;53.148;17.956;2023-04-03T02:00:48;102280.66;;;-1.13;73.45
77011;BME280;65945;53.148;17.956;2023-04-03T02:03:15;102280.12;;;-1.14;73.68
77011;BME280;65945;53.148;17.956;2023-04-03T02:05:41;102278.90;;;-1.15;73.68
77011;BME280;65945;53.148;17.956;2023-04-03T02:08:08;102277.98;;;-1.16;73.67
77011;BME280;65945;53.148;17.956;2023-04-03T02:10:35;102274.95;;;-1.18;73.85
77011;BME280;65945;53.148;17.956;2023-04-03T02:13:01;102280.08;;;-1.19;73.97
77011;BME280;65945;53.148;17.956;2023-04-03T02:15:28;102279.67;;;-1.18;74.10
77011;BME280;65945;53.148;17.956;2023-04-03T02:17:55;102284.54;;;-1.17;74.56
77011;BME280;65945;53.148;17.956;2023-04-03T02:20:21;102281.40;;;-1.16;74.44
77011;BME280;65945;53.148;17.956;2023-04-03T02:22:48;102282.42;;;-1.14;74.32
77011;BME280;65945;53.148;17.956;2023-04-03T02:25:15;102282.92;;;-1.15;74.00
77011;BME280;65945;53.148;17.956;2023-04-03T02:27:41;102280.66;;;-1.16;74.03
77011;BME280;65945;53.148;17.956;2023-04-03T02:30:09;102282.05;;;-1.17;73.96
77011;BME280;65945;53.148;17.956;2023-04-03T02:32:37;102282.73;;;-1.21;73.98
77011;BME280;65945;53.148;17.956;2023-04-03T02:35:04;102288.30;;;-1.23;74.55
77011;BME280;65945;53.148;17.956;2023-04-03T02:37:31;102287.95;;;-1.24;74.42
77011;BME280;65945;53.148;17.956;2023-04-03T02:39:58;102293.96;;;-1.26;74.27
77011;BME280;65945;53.148;17.956;2023-04-03T02:42:27;102291.64;;;-1.26;74.22
77011;BME280;65945;53.148;17.956;2023-04-03T02:44:54;102300.59;;;-1.28;73.88
77011;BME280;65945;53.148;17.956;2023-04-03T02:47:22;102299.50;;;-1.29;74.21
77011;BME280;65945;53.148;17.956;2023-04-03T02:49:48;102298.98;;;-1.32;74.30
77011;BME280;65945;53.148;17.956;2023-04-03T02:52:15;102304.02;;;-1.34;74.20
77011;BME280;65945;53.148;17.956;2023-04-03T02:54:42;102304.98;;;-1.36;73.95
77011;BME280;65945;53.148;17.956;2023-04-03T02:57:09;102309.66;;;-1.38;74.14
77011;BME280;65945;53.148;17.956;2023-04-03T02:59:37;102309.52;;;-1.39;74.34
77011;BME280;65945;53.148;17.956;2023-04-03T03:02:08;102309.62;;;-1.42;75.20
77011;BME280;65945;53.148;17.956;2023-04-03T03:04:35;102313.41;;;-1.44;74.92
77011;BME280;65945;53.148;17.956;2023-04-03T03:07:02;102311.25;;;-1.45;75.68
77011;BME280;65945;53.148;17.956;2023-04-03T03:09:29;102309.46;;;-1.44;75.03
77011;BME280;65945;53.148;17.956;2023-04-03T03:11:56;102314.67;;;-1.44;74.96
77011;BME280;65945;53.148;17.956;2023-04-03T03:14:23;102312.55;;;-1.45;75.18
77011;BME280;65945;53.148;17.956;2023-04-03T03:16:50;102316.52;;;-1.46;75.16
77011;BME280;65945;53.148;17.956;2023-04-03T03:19:16;102317.36;;;-1.46;75.48
77011;BME280;65945;53.148;17.956;2023-04-03T03:21:43;102319.94;;;-1.45;75.09
77011;BME280;65945;53.148;17.956;2023-04-03T03:24:10;102320.21;;;-1.45;75.19
77011;BME280;65945;53.148;17.956;2023-04-03T03:26:38;102321.65;;;-1.44;75.07
77011;BME280;65945;53.148;17.956;2023-04-03T03:29:05;102318.48;;;-1.45;74.68
77011;BME280;65945;53.148;17.956;2023-04-03T03:31:32;102324.43;;;-1.46;75.20
77011;BME280;65945;53.148;17.956;2023-04-03T03:33:58;102326.23;;;-1.48;75.32
77011;BME280;65945;53.148;17.956;2023-04-03T03:36:25;102324.02;;;-1.48;74.98
77011;BME280;65945;53.148;17.956;2023-04-03T03:38:51;102327.95;;;-1.49;74.92
77011;BME280;65945;53.148;17.956;2023-04-03T03:41:18;102326.88;;;-1.49;75.43
77011;BME280;65945;53.148;17.956;2023-04-03T03:43:45;102328.02;;;-1.50;74.97
77011;BME280;65945;53.148;17.956;2023-04-03T03:46:12;102332.98;;;-1.52;75.10
77011;BME280;65945;53.148;17.956;2023-04-03T03:48:39;102332.15;;;-1.53;75.24
77011;BME280;65945;53.148;17.956;2023-04-03T03:51:06;102332.52;;;-1.55;75.02
77011;BME280;65945;53.148;17.956;2023-04-03T03:53:35;102334.77;;;-1.58;75.28
77011;BME280;65945;53.148;17.956;2023-04-03T03:56:05;102335.89;;;-1.59;75.07
77011;BME280;65945;53.148;17.956;2023-04-03T03:58:34;102339.09;;;-1.62;75.07
77011;BME280;65945;53.148;17.956;2023-04-03T04:01:04;102337.23;;;-1.65;75.44
77011;BME280;65945;53.148;17.956;2023-04-03T04:03:32;102339.64;;;-1.66;75.47
77011;BME280;65945;53.148;17.956;2023-04-03T04:05:59;102344.41;;;-1.66;75.47
77011;BME280;65945;53.148;17.956;2023-04-03T04:08:27;102340.86;;;-1.67;75.14
77011;BME280;65945;53.148;17.956;2023-04-03T04:10:53;102347.23;;;-1.68;75.05
77011;BME280;65945;53.148;17.956;2023-04-03T04:13:20;102349.80;;;-1.70;75.40
77011;BME280;65945;53.148;17.956;2023-04-03T04:15:47;102353.50;;;-1.72;75.60
77011;BME280;65945;53.148;17.956;2023-04-03T04:18:14;102354.66;;;-1.73;75.50
77011;BME280;65945;53.148;17.956;2023-04-03T04:20:45;102360.77;;;-1.75;75.45
77011;BME280;65945;53.148;17.956;2023-04-03T04:23:11;102363.61;;;-1.77;75.45
77011;BME280;65945;53.148;17.956;2023-04-03T04:25:38;102368.93;;;-1.78;75.70
77011;BME280;65945;53.148;17.956;2023-04-03T04:28:06;102366.05;;;-1.78;75.83
77011;BME280;65945;53.148;17.956;2023-04-03T04:30:32;102367.45;;;-1.78;75.71
77011;BME280;65945;53.148;17.956;2023-04-03T04:32:59;102366.98;;;-1.78;75.84
77011;BME280;65945;53.148;17.956;2023-04-03T04:35:26;102366.05;;;-1.76;75.61
77011;BME280;65945;53.148;17.956;2023-04-03T04:37:53;102368.34;;;-1.74;75.56
77011;BME280;65945;53.148;17.956;2023-04-03T04:40:20;102371.52;;;-1.73;75.85
77011;BME280;65945;53.148;17.956;2023-04-03T04:42:48;102365.48;;;-1.71;75.85
77011;BME280;65945;53.148;17.956;2023-04-03T04:45:15;102372.32;;;-1.70;75.82
77011;BME280;65945;53.148;17.956;2023-04-03T04:47:43;102371.30;;;-1.69;75.74
77011;BME280;65945;53.148;17.956;2023-04-03T04:50:10;102375.63;;;-1.68;75.82
77011;BME280;65945;53.148;17.956;2023-04-03T04:52:37;102376.04;;;-1.66;75.48
77011;BME280;65945;53.148;17.956;2023-04-03T04:55:05;102379.79;;;-1.63;75.35
77011;BME280;65945;53.148;17.956;2023-04-03T04:57:32;102385.08;;;-1.61;75.34
77011;BME280;65945;53.148;17.956;2023-04-03T04:59:59;102383.73;;;-1.58;75.27
77011;BME280;65945;53.148;17.956;2023-04-03T05:02:25;102387.85;;;-1.55;75.34
77011;BME280;65945;53.148;17.956;2023-04-03T05:04:52;102390.29;;;-1.51;75.21
77011;BME280;65945;53.148;17.956;2023-04-03T05:07:22;102392.69;;;-1.47;74.88
77011;BME280;65945;53.148;17.956;2023-04-03T05:09:48;102388.77;;;-1.42;75.15
77011;BME280;65945;53.148;17.956;2023-04-03T05:12:16;102390.95;;;-1.36;74.98
77011;BME280;65945;53.148;17.956;2023-04-03T05:14:48;102390.98;;;-1.28;74.91
77011;BME280;65945;53.148;17.956;2023-04-03T05:17:14;102393.95;;;-1.22;74.68
77011;BME280;65945;53.148;17.956;2023-04-03T05:19:44;102394.86;;;-1.17;74.44
77011;BME280;65945;53.148;17.956;2023-04-03T05:22:11;102396.27;;;-1.10;74.37
77011;BME280;65945;53.148;17.956;2023-04-03T05:24:38;102393.34;;;-1.04;73.97
77011;BME280;65945;53.148;17.956;2023-04-03T05:27:04;102389.77;;;-0.97;73.90
77011;BME280;65945;53.148;17.956;2023-04-03T05:29:32;102390.63;;;-0.90;73.68
77011;BME280;65945;53.148;17.956;2023-04-03T05:31:59;102393.80;;;-0.82;73.62
77011;BME280;65945;53.148;17.956;2023-04-03T05:34:26;102391.91;;;-0.74;73.30
77011;BME280;65945;53.148;17.956;2023-04-03T05:36:53;102395.77;;;-0.64;72.90
77011;BME280;65945;53.148;17.956;2023-04-03T05:39:19;102395.09;;;-0.54;72.47
77011;BME280;65945;53.148;17.956;2023-04-03T05:41:47;102396.55;;;-0.43;72.00
77011;BME280;65945;53.148;17.956;2023-04-03T05:44:13;102396.50;;;-0.33;72.03
77011;BME280;65945;53.148;17.956;2023-04-03T05:46:40;102396.67;;;-0.23;71.40
77011;BME280;65945;53.148;17.956;2023-04-03T05:49:08;102398.75;;;-0.13;71.06
77011;BME280;65945;53.148;17.956;2023-04-03T05:51:36;102398.94;;;-0.03;70.66
77011;BME280;65945;53.148;17.956;2023-04-03T05:54:24;102401.36;;;0.08;69.87
77011;BME280;65945;53.148;17.956;2023-04-03T05:56:51;102399.13;;;0.19;69.67
77011;BME280;65945;53.148;17.956;2023-04-03T05:59:19;102401.36;;;0.29;68.92
77011;BME280;65945;53.148;17.956;2023-04-03T06:01:47;102402.83;;;0.38;68.52
77011;BME280;65945;53.148;17.956;2023-04-03T06:04:14;102400.93;;;0.46;68.05
77011;BME280;65945;53.148;17.956;2023-04-03T06:06:52;102407.92;;;0.51;67.11
77011;BME280;65945;53.148;17.956;2023-04-03T06:09:21;102406.31;;;0.56;67.09
77011;BME280;65945;53.148;17.956;2023-04-03T06:11:48;102408.70;;;0.57;67.01
77011;BME280;65945;53.148;17.956;2023-04-03T06:14:15;102408.83;;;0.59;67.04
77011;BME280;65945;53.148;17.956;2023-04-03T06:16:42;102410.58;;;0.60;65.87
77011;BME280;65945;53.148;17.956;2023-04-03T06:19:10;102412.46;;;0.66;66.14
77011;BME280;65945;53.148;17.956;2023-04-03T06:21:39;102418.80;;;0.67;64.82
77011;BME280;65945;53.148;17.956;2023-04-03T06:24:06;102417.35;;;0.69;65.65
77011;BME280;65945;53.148;17.956;2023-04-03T06:26:33;102420.97;;;0.72;65.11
77011;BME280;65945;53.148;17.956;2023-04-03T06:29:00;102423.40;;;0.79;64.78
77011;BME280;65945;53.148;17.956;2023-04-03T06:31:28;102421.81;;;0.85;63.25
77011;BME280;65945;53.148;17.956;2023-04-03T06:33:55;102420.50;;;0.94;63.40
77011;BME280;65945;53.148;17.956;2023-04-03T06:36:22;102425.16;;;1.02;62.13
77011;BME280;65945;53.148;17.956;2023-04-03T06:38:50;102434.23;;;1.15;62.51
77011;BME280;65945;53.148;17.956;2023-04-03T06:41:16;102432.91;;;1.28;60.09
77011;BME280;65945;53.148;17.956;2023-04-03T06:43:44;102426.06;;;1.41;59.49
77011;BME280;65945;53.148;17.956;2023-04-03T06:46:15;102427.88;;;1.56;59.59
77011;BME280;65945;53.148;17.956;2023-04-03T06:48:44;102433.20;;;1.74;60.58
77011;BME280;65945;53.148;17.956;2023-04-03T06:51:22;102434.05;;;1.89;59.05
77011;BME280;65945;53.148;17.956;2023-04-03T06:53:50;102438.08;;;2.08;59.55
77011;BME280;65945;53.148;17.956;2023-04-03T06:56:18;102447.64;;;2.26;56.96
77011;BME280;65945;53.148;17.956;2023-04-03T06:58:45;102448.75;;;2.33;55.58
77011;BME280;65945;53.148;17.956;2023-04-03T07:01:14;102450.70;;;2.32;55.50
77011;BME280;65945;53.148;17.956;2023-04-03T07:03:41;102452.48;;;2.35;55.19
77011;BME280;65945;53.148;17.956;2023-04-03T07:06:11;102460.08;;;2.43;55.13
77011;BME280;65945;53.148;17.956;2023-04-03T07:08:38;102458.55;;;2.49;54.27
77011;BME280;65945;53.148;17.956;2023-04-03T07:11:06;102461.08;;;2.53;55.49
77011;BME280;65945;53.148;17.956;2023-04-03T07:13:33;102469.84;;;2.53;54.60
77011;BME280;65945;53.148;17.956;2023-04-03T07:16:00;102465.63;;;2.41;54.30
77011;BME280;65945;53.148;17.956;2023-04-03T07:18:26;102468.41;;;2.35;54.81
77011;BME280;65945;53.148;17.956;2023-04-03T07:20:53;102469.52;;;2.36;55.51
77011;BME280;65945;53.148;17.956;2023-04-03T07:23:20;102474.08;;;2.36;55.31
77011;BME280;65945;53.148;17.956;2023-04-03T07:25:48;102474.80;;;2.26;54.32
77011;BME280;65945;53.148;17.956;2023-04-03T07:28:17;102477.45;;;2.18;54.18
77011;BME280;65945;53.148;17.956;2023-04-03T07:30:45;102479.71;;;2.12;54.65
77011;BME280;65945;53.148;17.956;2023-04-03T07:33:16;102478.54;;;2.10;54.79
77011;BME280;65945;53.148;17.956;2023-04-03T07:35:44;102482.28;;;2.16;54.51
77011;BME280;65945;53.148;17.956;2023-04-03T07:38:12;102484.66;;;2.27;54.10
77011;BME280;65945;53.148;17.956;2023-04-03T07:40:39;102476.84;;;2.33;53.76
77011;BME280;65945;53.148;17.956;2023-04-03T07:43:06;102483.31;;;2.41;52.98
77011;BME280;65945;53.148;17.956;2023-04-03T07:45:34;102487.09;;;2.43;52.19
77011;BME280;65945;53.148;17.956;2023-04-03T07:48:02;102480.34;;;2.44;52.40
77011;BME280;65945;53.148;17.956;2023-04-03T07:50:29;102481.73;;;2.52;52.03
77011;BME280;65945;53.148;17.956;2023-04-03T07:52:57;102485.77;;;2.49;51.55
77011;BME280;65945;53.148;17.956;2023-04-03T07:55:25;102486.97;;;2.48;50.90
77011;BME280;65945;53.148;17.956;2023-04-03T07:57:51;102488.71;;;2.48;49.80
77011;BME280;65945;53.148;17.956;2023-04-03T08:00:18;102485.17;;;2.60;49.72
77011;BME280;65945;53.148;17.956;2023-04-03T08:02:46;102488.00;;;2.63;49.21
77011;BME280;65945;53.148;17.956;2023-04-03T08:05:18;102486.12;;;2.66;49.03
77011;BME280;65945;53.148;17.956;2023-04-03T08:07:46;102491.15;;;2.74;49.95
77011;BME280;65945;53.148;17.956;2023-04-03T08:10:14;102494.17;;;2.75;49.29
77011;BME280;65945;53.148;17.956;2023-04-03T08:12:41;102489.15;;;2.69;48.70
77011;BME280;65945;53.148;17.956;2023-04-03T08:15:08;102495.52;;;2.60;49.11
77011;BME280;65945;53.148;17.956;2023-04-03T08:17:35;102503.73;;;2.51;48.54
77011;BME280;65945;53.148;17.956;2023-04-03T08:20:04;102501.93;;;2.39;47.96
77011;BME280;65945;53.148;17.956;2023-04-03T08:22:31;102496.89;;;2.30;48.04
77011;BME280;65945;53.148;17.956;2023-04-03T08:24:58;102501.71;;;2.26;48.38
77011;BME280;65945;53.148;17.956;2023-04-03T08:27:24;102494.71;;;2.24;48.76
77011;BME280;65945;53.148;17.956;2023-04-03T08:29:51;102500.34;;;2.20;48.58
77011;BME280;65945;53.148;17.956;2023-04-03T08:32:18;102498.28;;;2.21;48.92
77011;BME280;65945;53.148;17.956;2023-04-03T08:34:45;102497.94;;;2.23;49.73
77011;BME280;65945;53.148;17.956;2023-04-03T08:37:12;102497.36;;;2.29;49.78
77011;BME280;65945;53.148;17.956;2023-04-03T08:39:39;102496.17;;;2.45;49.44
77011;BME280;65945;53.148;17.956;2023-04-03T08:42:15;102499.45;;;2.68;49.53
77011;BME280;65945;53.148;17.956;2023-04-03T08:45:02;102498.97;;;2.96;49.61
77011;BME280;65945;53.148;17.956;2023-04-03T08:47:42;102497.88;;;3.23;47.90
77011;BME280;65945;53.148;17.956;2023-04-03T08:50:21;102500.43;;;3.37;45.32
77011;BME280;65945;53.148;17.956;2023-04-03T08:52:55;102499.26;;;3.35;42.54
77011;BME280;65945;53.148;17.956;2023-04-03T08:55:45;102494.85;;;3.31;42.47
77011;BME280;65945;53.148;17.956;2023-04-03T08:58:15;102489.81;;;3.40;43.10
77011;BME280;65945;53.148;17.956;2023-04-03T09:03:30;102488.15;;;3.70;44.19
77011;BME280;65945;53.148;17.956;2023-04-03T09:06:05;102487.45;;;3.84;44.26
77011;BME280;65945;53.148;17.956;2023-04-03T09:11:12;102482.90;;;4.03;42.28
77011;BME280;65945;53.148;17.956;2023-04-03T09:13:54;102481.96;;;4.10;42.39
77011;BME280;65945;53.148;17.956;2023-04-03T09:22:11;102489.80;;;4.17;42.55
77011;BME280;65945;53.148;17.956;2023-04-03T09:24:40;102497.61;;;3.97;43.09
77011;BME280;65945;53.148;17.956;2023-04-03T09:27:11;102496.07;;;3.94;43.50
77011;BME280;65945;53.148;17.956;2023-04-03T09:29:43;102487.69;;;3.92;43.25
77011;BME280;65945;53.148;17.956;2023-04-03T09:32:29;102485.86;;;4.04;44.28
77011;BME280;65945;53.148;17.956;2023-04-03T09:34:59;102491.94;;;4.22;42.94
77011;BME280;65945;53.148;17.956;2023-04-03T09:37:45;102484.68;;;4.29;42.62
77011;BME280;65945;53.148;17.956;2023-04-03T09:40:41;102491.52;;;4.26;43.48
77011;BME280;65945;53.148;17.956;2023-04-03T09:43:25;102490.46;;;4.25;44.24
77011;BME280;65945;53.148;17.956;2023-04-03T09:45:53;102501.70;;;3.99;44.04
77011;BME280;65945;53.148;17.956;2023-04-03T09:48:23;102504.47;;;3.75;44.71
77011;BME280;65945;53.148;17.956;2023-04-03T09:53:38;102503.20;;;3.63;44.21
77011;BME280;65945;53.148;17.956;2023-04-03T09:58:44;102492.31;;;3.80;43.98
77011;BME280;65945;53.148;17.956;2023-04-03T10:04:06;102480.85;;;4.15;43.20
77011;BME280;65945;53.148;17.956;2023-04-03T10:06:37;102497.45;;;4.23;43.70
77011;BME280;65945;53.148;17.956;2023-04-03T10:09:14;102493.50;;;4.10;43.25
77011;BME280;65945;53.148;17.956;2023-04-03T10:12:12;102500.94;;;3.99;43.97
77011;BME280;65945;53.148;17.956;2023-04-03T10:15:01;102502.55;;;3.88;43.74
77011;BME280;65945;53.148;17.956;2023-04-03T10:17:50;102502.67;;;3.79;43.55
77011;BME280;65945;53.148;17.956;2023-04-03T10:20:40;102499.97;;;3.89;43.08
77011;BME280;65945;53.148;17.956;2023-04-03T10:23:25;102485.41;;;4.15;42.93
77011;BME280;65945;53.148;17.956;2023-04-03T10:26:22;102479.56;;;4.41;42.33
77011;BME280;65945;53.148;17.956;2023-04-03T10:31:37;102486.83;;;4.63;41.62
77011;BME280;65945;53.148;17.956;2023-04-03T10:34:19;102497.73;;;4.59;41.91
77011;BME280;65945;53.148;17.956;2023-04-03T10:37:21;102492.92;;;4.65;41.83
77011;BME280;65945;53.148;17.956;2023-04-03T10:40:01;102496.90;;;4.73;41.27
77011;BME280;65945;53.148;17.956;2023-04-03T10:42:43;102478.86;;;4.85;41.78
77011;BME280;65945;53.148;17.956;2023-04-03T10:45:40;102474.15;;;5.09;42.76
77011;BME280;65945;53.148;17.956;2023-04-03T10:51:24;102497.73;;;5.21;40.54
77011;BME280;65945;53.148;17.956;2023-04-03T10:56:40;102492.06;;;4.83;40.40
77011;BME280;65945;53.148;17.956;2023-04-03T10:59:33;102483.77;;;4.94;41.08
77011;BME280;65945;53.148;17.956;2023-04-03T11:02:35;102480.42;;;5.21;41.08
77011;BME280;65945;53.148;17.956;2023-04-03T11:05:07;102490.19;;;5.23;41.01
77011;BME280;65945;53.148;17.956;2023-04-03T11:07:46;102487.41;;;5.14;41.07
77011;BME280;65945;53.148;17.956;2023-04-03T11:10:29;102484.19;;;4.96;40.74
77011;BME280;65945;53.148;17.956;2023-04-03T11:13:22;102489.58;;;4.66;40.80
77011;BME280;65945;53.148;17.956;2023-04-03T11:15:53;102479.88;;;4.45;41.11
77011;BME280;65945;53.148;17.956;2023-04-03T11:18:26;102473.73;;;4.33;41.43
77011;BME280;65945;53.148;17.956;2023-04-03T11:21:00;102471.65;;;4.31;41.44
77011;BME280;65945;53.148;17.956;2023-04-03T11:23:34;102467.70;;;4.42;39.32
77011;BME280;65945;53.148;17.956;2023-04-03T11:26:10;102458.30;;;4.64;39.52
77011;BME280;65945;53.148;17.956;2023-04-03T11:28:38;102455.70;;;4.79;39.98
77011;BME280;65945;53.148;17.956;2023-04-03T11:32:02;102463.02;;;5.02;39.98
77011;BME280;65945;53.148;17.956;2023-04-03T11:34:42;102454.65;;;5.20;39.72
77011;BME280;65945;53.148;17.956;2023-04-03T11:39:57;102455.48;;;5.38;39.48
77011;BME280;65945;53.148;17.956;2023-04-03T11:42:38;102449.23;;;5.37;39.32
77011;BME280;65945;53.148;17.956;2023-04-03T11:47:50;102444.31;;;5.58;40.94
77011;BME280;65945;53.148;17.956;2023-04-03T11:50:40;102455.64;;;5.66;40.15
77011;BME280;65945;53.148;17.956;2023-04-03T12:08:27;102445.38;;;5.46;39.96
77011;BME280;65945;53.148;17.956;2023-04-03T12:16:51;102449.42;;;5.13;39.82
77011;BME280;65945;53.148;17.956;2023-04-03T12:19:37;102447.17;;;5.01;40.58
77011;BME280;65945;53.148;17.956;2023-04-03T12:22:15;102437.11;;;5.15;40.50
77011;BME280;65945;53.148;17.956;2023-04-03T12:24:45;102451.88;;;5.10;39.36
77011;BME280;65945;53.148;17.956;2023-04-03T12:29:59;102447.39;;;4.93;40.17
77011;BME280;65945;53.148;17.956;2023-04-03T12:38:10;102419.79;;;5.46;39.89
77011;BME280;65945;53.148;17.956;2023-04-03T12:43:17;102432.61;;;5.51;40.82
77011;BME280;65945;53.148;17.956;2023-04-03T12:48:25;102433.35;;;5.28;40.34
77011;BME280;65945;53.148;17.956;2023-04-03T12:50:54;102429.97;;;5.22;40.65
77011;BME280;65945;53.148;17.956;2023-04-03T12:53:25;102425.05;;;5.21;40.44
77011;BME280;65945;53.148;17.956;2023-04-03T12:55:57;102419.90;;;5.32;40.21
77011;BME280;65945;53.148;17.956;2023-04-03T12:58:28;102422.90;;;5.50;39.69
77011;BME280;65945;53.148;17.956;2023-04-03T13:01:13;102418.27;;;5.62;40.09
77011;BME280;65945;53.148;17.956;2023-04-03T13:03:44;102424.98;;;5.58;39.65
77011;BME280;65945;53.148;17.956;2023-04-03T13:06:18;102429.59;;;5.41;39.12
77011;BME280;65945;53.148;17.956;2023-04-03T13:08:53;102426.80;;;5.32;39.04
77011;BME280;65945;53.148;17.956;2023-04-03T13:11:21;102422.75;;;5.24;39.31
77011;BME280;65945;53.148;17.956;2023-04-03T13:14:03;102433.98;;;5.11;39.09
77011;BME280;65945;53.148;17.956;2023-04-03T13:16:32;102424.23;;;5.11;39.85
77011;BME280;65945;53.148;17.956;2023-04-03T13:18:59;102417.79;;;5.16;40.20
77011;BME280;65945;53.148;17.956;2023-04-03T13:21:28;102420.46;;;5.27;40.23
77011;BME280;65945;53.148;17.956;2023-04-03T13:23:58;102416.27;;;5.27;38.96
77011;BME280;65945;53.148;17.956;2023-04-03T13:26:29;102409.86;;;5.21;39.30
77011;BME280;65945;53.148;17.956;2023-04-03T13:29:03;102406.30;;;5.11;39.64
77011;BME280;65945;53.148;17.956;2023-04-03T13:31:38;102401.72;;;5.14;39.97
77011;BME280;65945;53.148;17.956;2023-04-03T13:36:43;102406.20;;;5.27;39.18
77011;BME280;65945;53.148;17.956;2023-04-03T13:41:43;102403.65;;;5.24;38.56
77011;BME280;65945;53.148;17.956;2023-04-03T13:47:00;102398.91;;;5.27;38.92
77011;BME280;65945;53.148;17.956;2023-04-03T13:49:32;102401.13;;;5.30;39.59
77011;BME280;65945;53.148;17.956;2023-04-03T13:51:59;102398.30;;;5.35;39.89
77011;BME280;65945;53.148;17.956;2023-04-03T13:54:33;102401.32;;;5.36;40.19
77011;BME280;65945;53.148;17.956;2023-04-03T13:57:02;102405.41;;;5.35;40.99
77011;BME280;65945;53.148;17.956;2023-04-03T13:59:34;102407.36;;;5.24;41.62
77011;BME280;65945;53.148;17.956;2023-04-03T14:07:14;102414.96;;;4.84;43.66
77011;BME280;65945;53.148;17.956;2023-04-03T14:09:41;102407.77;;;4.76;43.54
77011;BME280;65945;53.148;17.956;2023-04-03T14:12:17;102404.20;;;4.87;43.22
77011;BME280;65945;53.148;17.956;2023-04-03T14:14:45;102397.61;;;5.07;42.49
77011;BME280;65945;53.148;17.956;2023-04-03T14:17:18;102396.52;;;5.27;42.37
77011;BME280;65945;53.148;17.956;2023-04-03T14:19:46;102391.36;;;5.30;42.10
77011;BME280;65945;53.148;17.956;2023-04-03T14:22:20;102390.59;;;5.23;42.26
77011;BME280;65945;53.148;17.956;2023-04-03T14:24:50;102392.91;;;5.15;43.05
77011;BME280;65945;53.148;17.956;2023-04-03T14:27:19;102396.80;;;5.04;43.82